Salem, UT (84653)

6:48 AM MDT on August 05, 2015 (GMT -0600)
Ironrod | | Change Station
CLOSE
Current Station
Personal Weather Station
Location: Elk Ridge, UT
Elevation: 5420 ft
Nearby Weather Stations

Elev 5420 ft 40.01 °N, 111.68 °W | Updated 3 minutes ago

Partly Cloudy
Partly Cloudy
72.9 °F
Feels Like 75 °F
N
8.0
Wind Variable Wind from SSE
Gusts 12.0 mph

Today
High -- | Low -- °F
--% Chance of Precip.
Yesterday
High -- | Low -- °F
Precip. -- in
6:28 AM 8:36 PM
Waning Gibbous, 67% visible
Pressure 30.04 in
Visibility 15.0 miles
Clouds Scattered Clouds 12000 ft
Heat Index 75 °F
Dew Point 30 °F
Humidity 20%
Rainfall 0.00 in
Snow Depth Not available.
UV 0 out of 12
Pollen 7.00 out of 12
Air Quality Not available.
Flu Activity Not available.
METAR KPVU 051247Z 12005KT 15SM SCT120 18/08 A3004

More Conditions Fewer Conditions

Pressure 30.04 in
Visibility 15.0 miles
Clouds Scattered Clouds 12000 ft
Heat Index 75 °F
Dew Point 30 °F
Humidity 20%
Rainfall 0.00 in
Snow Depth Not available.
UV 0 out of 12
Pollen 7.00 out of 12
Air Quality Not available.
Flu Activity Not available.
METAR KPVU 051247Z 12005KT 15SM SCT120 18/08 A3004

More Conditions Fewer Conditions

10-Day Weather Forecast

×

Almanac

Astronomy

Aug. 05, 2015 Rise Set
Actual Time
Civil Twilight
Nautical Twilight
Astronomical Twilight
Moon
Length of Visible Light
Length of Day
Tomorrow will be .
, % of the Moon is Illuminated

Today's Extremes

State Highs State Lows

Community

WunderPhotos

Upload Photos

1,844,175 photos uploaded!

WunderBlogs® & News

Nearby

Air Quality

  Air Quality AQ Index Pollutant
Not available.

Snow Depth

Station Depth Elevation

Earthquake Activity

City Distance Mag. Time & Date
Minimum magnitude displayed is 2.5.

Coastal Water Temperatures

Place Temperature

Stations

Nearby Weather Stations

Station Location Temp. Windchill Dew Point Humidity Wind Precip. Elev Updated Type